sensor_id;sensor_type;location;lat;lon;timestamp;P1;durP1;ratioP1;P2;durP2;ratioP2
10657;SDS011;5377;43.276;26.930;2023-11-19T00:00:30;0.50;;;0.40;;
10657;SDS011;5377;43.276;26.930;2023-11-19T00:02:56;0.50;;;0.50;;
10657;SDS011;5377;43.276;26.930;2023-11-19T00:05:23;1.33;;;1.20;;
10657;SDS011;5377;43.276;26.930;2023-11-19T00:07:50;1.13;;;1.03;;
10657;SDS011;5377;43.276;26.930;2023-11-19T00:10:18;1.50;;;1.40;;
10657;SDS011;5377;43.276;26.930;2023-11-19T00:12:46;0.77;;;0.77;;
10657;SDS011;5377;43.276;26.930;2023-11-19T00:15:14;1.13;;;0.90;;
10657;SDS011;5377;43.276;26.930;2023-11-19T00:17:44;1.67;;;1.33;;
10657;SDS011;5377;43.276;26.930;2023-11-19T00:20:12;2.73;;;1.67;;
10657;SDS011;5377;43.276;26.930;2023-11-19T00:22:40;2.13;;;1.93;;
10657;SDS011;5377;43.276;26.930;2023-11-19T00:25:08;0.83;;;0.80;;
10657;SDS011;5377;43.276;26.930;2023-11-19T00:27:37;2.03;;;1.63;;
10657;SDS011;5377;43.276;26.930;2023-11-19T00:30:04;2.07;;;1.90;;
10657;SDS011;5377;43.276;26.930;2023-11-19T00:32:31;2.27;;;1.83;;
10657;SDS011;5377;43.276;26.930;2023-11-19T00:34:58;2.70;;;2.10;;
10657;SDS011;5377;43.276;26.930;2023-11-19T00:37:25;1.33;;;1.17;;
10657;SDS011;5377;43.276;26.930;2023-11-19T00:39:52;2.67;;;1.70;;
10657;SDS011;5377;43.276;26.930;2023-11-19T00:42:21;2.10;;;0.70;;
10657;SDS011;5377;43.276;26.930;2023-11-19T00:44:50;1.30;;;1.20;;
10657;SDS011;5377;43.276;26.930;2023-11-19T00:47:17;3.53;;;2.10;;
10657;SDS011;5377;43.276;26.930;2023-11-19T00:49:45;2.00;;;1.33;;
10657;SDS011;5377;43.276;26.930;2023-11-19T00:52:13;1.70;;;1.30;;
10657;SDS011;5377;43.276;26.930;2023-11-19T00:54:40;1.27;;;1.03;;
10657;SDS011;5377;43.276;26.930;2023-11-19T00:57:07;2.70;;;1.47;;
10657;SDS011;5377;43.276;26.930;2023-11-19T00:59:34;2.97;;;1.50;;
10657;SDS011;5377;43.276;26.930;2023-11-19T01:02:02;1.27;;;1.17;;
10657;SDS011;5377;43.276;26.930;2023-11-19T01:04:32;3.47;;;2.43;;
10657;SDS011;5377;43.276;26.930;2023-11-19T01:06:59;2.37;;;1.87;;
10657;SDS011;5377;43.276;26.930;2023-11-19T01:09:29;2.40;;;2.20;;
10657;SDS011;5377;43.276;26.930;2023-11-19T01:11:57;1.30;;;1.20;;
10657;SDS011;5377;43.276;26.930;2023-11-19T01:14:25;3.00;;;2.50;;
10657;SDS011;5377;43.276;26.930;2023-11-19T01:16:52;2.87;;;1.97;;
10657;SDS011;5377;43.276;26.930;2023-11-19T01:19:21;2.50;;;2.17;;
10657;SDS011;5377;43.276;26.930;2023-11-19T01:21:49;2.07;;;1.70;;
10657;SDS011;5377;43.276;26.930;2023-11-19T01:24:16;1.83;;;1.50;;
10657;SDS011;5377;43.276;26.930;2023-11-19T01:26:43;2.00;;;1.50;;
10657;SDS011;5377;43.276;26.930;2023-11-19T01:29:11;1.37;;;1.27;;
10657;SDS011;5377;43.276;26.930;2023-11-19T01:31:39;1.37;;;1.17;;
10657;SDS011;5377;43.276;26.930;2023-11-19T01:34:06;1.40;;;0.90;;
10657;SDS011;5377;43.276;26.930;2023-11-19T01:36:34;2.93;;;1.30;;
10657;SDS011;5377;43.276;26.930;2023-11-19T01:39:01;1.43;;;1.10;;
10657;SDS011;5377;43.276;26.930;2023-11-19T01:41:29;1.87;;;1.63;;
10657;SDS011;5377;43.276;26.930;2023-11-19T01:43:56;1.80;;;1.70;;
10657;SDS011;5377;43.276;26.930;2023-11-19T01:46:24;2.07;;;1.77;;
10657;SDS011;5377;43.276;26.930;2023-11-19T01:48:51;3.60;;;2.47;;
10657;SDS011;5377;43.276;26.930;2023-11-19T01:51:19;3.30;;;2.90;;
10657;SDS011;5377;43.276;26.930;2023-11-19T01:53:48;3.07;;;2.83;;
10657;SDS011;5377;43.276;26.930;2023-11-19T01:56:16;2.53;;;2.00;;
10657;SDS011;5377;43.276;26.930;2023-11-19T01:58:44;1.90;;;1.70;;
10657;SDS011;5377;43.276;26.930;2023-11-19T02:01:12;3.07;;;2.77;;
10657;SDS011;5377;43.276;26.930;2023-11-19T02:03:40;2.40;;;2.20;;
10657;SDS011;5377;43.276;26.930;2023-11-19T02:06:07;3.37;;;3.07;;
10657;SDS011;5377;43.276;26.930;2023-11-19T02:08:35;3.27;;;2.57;;
10657;SDS011;5377;43.276;26.930;2023-11-19T02:11:03;3.33;;;2.57;;
10657;SDS011;5377;43.276;26.930;2023-11-19T02:13:32;2.87;;;2.13;;
10657;SDS011;5377;43.276;26.930;2023-11-19T02:16:01;3.97;;;3.33;;
10657;SDS011;5377;43.276;26.930;2023-11-19T02:18:28;3.40;;;2.80;;
10657;SDS011;5377;43.276;26.930;2023-11-19T02:20:55;3.23;;;2.63;;
10657;SDS011;5377;43.276;26.930;2023-11-19T02:23:22;4.50;;;3.53;;
10657;SDS011;5377;43.276;26.930;2023-11-19T02:25:54;5.53;;;4.13;;
10657;SDS011;5377;43.276;26.930;2023-11-19T02:28:28;4.10;;;3.67;;
10657;SDS011;5377;43.276;26.930;2023-11-19T02:30:55;5.00;;;3.60;;
10657;SDS011;5377;43.276;26.930;2023-11-19T02:33:22;4.07;;;2.97;;
10657;SDS011;5377;43.276;26.930;2023-11-19T02:35:50;5.97;;;3.60;;
10657;SDS011;5377;43.276;26.930;2023-11-19T02:38:17;4.83;;;2.80;;
10657;SDS011;5377;43.276;26.930;2023-11-19T02:40:44;4.33;;;3.87;;
10657;SDS011;5377;43.276;26.930;2023-11-19T02:43:11;4.67;;;3.70;;
10657;SDS011;5377;43.276;26.930;2023-11-19T02:45:39;5.47;;;3.33;;
10657;SDS011;5377;43.276;26.930;2023-11-19T02:48:07;4.50;;;3.60;;
10657;SDS011;5377;43.276;26.930;2023-11-19T02:50:35;5.47;;;4.27;;
10657;SDS011;5377;43.276;26.930;2023-11-19T02:53:02;4.57;;;3.60;;
10657;SDS011;5377;43.276;26.930;2023-11-19T02:55:29;5.60;;;4.17;;
10657;SDS011;5377;43.276;26.930;2023-11-19T02:58:01;6.07;;;4.33;;
10657;SDS011;5377;43.276;26.930;2023-11-19T03:00:33;7.00;;;5.40;;
10657;SDS011;5377;43.276;26.930;2023-11-19T03:03:03;6.63;;;4.40;;
10657;SDS011;5377;43.276;26.930;2023-11-19T03:05:42;5.53;;;4.17;;
10657;SDS011;5377;43.276;26.930;2023-11-19T03:08:10;6.63;;;4.67;;
10657;SDS011;5377;43.276;26.930;2023-11-19T03:10:37;6.10;;;3.90;;
10657;SDS011;5377;43.276;26.930;2023-11-19T03:13:04;6.17;;;5.03;;
10657;SDS011;5377;43.276;26.930;2023-11-19T03:15:32;3.87;;;3.37;;
10657;SDS011;5377;43.276;26.930;2023-11-19T03:17:59;5.90;;;4.27;;
10657;SDS011;5377;43.276;26.930;2023-11-19T03:20:28;5.33;;;4.50;;
10657;SDS011;5377;43.276;26.930;2023-11-19T03:22:55;5.63;;;4.23;;
10657;SDS011;5377;43.276;26.930;2023-11-19T03:25:24;4.67;;;4.17;;
10657;SDS011;5377;43.276;26.930;2023-11-19T03:27:52;7.73;;;5.10;;
10657;SDS011;5377;43.276;26.930;2023-11-19T03:30:19;7.67;;;4.77;;
10657;SDS011;5377;43.276;26.930;2023-11-19T03:32:46;6.17;;;4.53;;
10657;SDS011;5377;43.276;26.930;2023-11-19T03:35:13;6.03;;;4.87;;
10657;SDS011;5377;43.276;26.930;2023-11-19T03:37:41;6.53;;;5.13;;
10657;SDS011;5377;43.276;26.930;2023-11-19T03:40:09;7.33;;;3.87;;
10657;SDS011;5377;43.276;26.930;2023-11-19T03:42:37;6.50;;;3.20;;
10657;SDS011;5377;43.276;26.930;2023-11-19T03:45:05;8.10;;;5.37;;
10657;SDS011;5377;43.276;26.930;2023-11-19T03:47:33;6.87;;;4.70;;
10657;SDS011;5377;43.276;26.930;2023-11-19T03:50:00;8.27;;;5.40;;
10657;SDS011;5377;43.276;26.930;2023-11-19T03:52:27;5.50;;;4.33;;
10657;SDS011;5377;43.276;26.930;2023-11-19T03:54:56;9.60;;;5.07;;
10657;SDS011;5377;43.276;26.930;2023-11-19T03:57:23;6.67;;;4.73;;
10657;SDS011;5377;43.276;26.930;2023-11-19T03:59:50;8.47;;;5.80;;
10657;SDS011;5377;43.276;26.930;2023-11-19T04:02:17;5.33;;;4.83;;
10657;SDS011;5377;43.276;26.930;2023-11-19T04:04:44;5.87;;;4.70;;
10657;SDS011;5377;43.276;26.930;2023-11-19T04:07:10;9.13;;;7.00;;
10657;SDS011;5377;43.276;26.930;2023-11-19T04:09:37;7.67;;;5.73;;
10657;SDS011;5377;43.276;26.930;2023-11-19T04:12:06;8.83;;;5.00;;
10657;SDS011;5377;43.276;26.930;2023-11-19T04:14:33;5.23;;;4.23;;
10657;SDS011;5377;43.276;26.930;2023-11-19T04:17:00;8.40;;;6.27;;
10657;SDS011;5377;43.276;26.930;2023-11-19T04:19:27;8.27;;;5.23;;
10657;SDS011;5377;43.276;26.930;2023-11-19T04:21:54;7.77;;;6.20;;
10657;SDS011;5377;43.276;26.930;2023-11-19T04:24:22;8.73;;;6.13;;
10657;SDS011;5377;43.276;26.930;2023-11-19T04:26:49;7.47;;;4.67;;
10657;SDS011;5377;43.276;26.930;2023-11-19T04:29:19;7.77;;;5.73;;
10657;SDS011;5377;43.276;26.930;2023-11-19T04:31:45;6.93;;;5.37;;
10657;SDS011;5377;43.276;26.930;2023-11-19T04:34:12;9.13;;;5.20;;
10657;SDS011;5377;43.276;26.930;2023-11-19T04:36:39;7.83;;;5.20;;
10657;SDS011;5377;43.276;26.930;2023-11-19T04:39:06;8.23;;;5.70;;
10657;SDS011;5377;43.276;26.930;2023-11-19T04:41:41;8.57;;;5.57;;
10657;SDS011;5377;43.276;26.930;2023-11-19T04:44:12;6.00;;;4.47;;
10657;SDS011;5377;43.276;26.930;2023-11-19T04:46:40;8.20;;;4.97;;
10657;SDS011;5377;43.276;26.930;2023-11-19T04:49:08;7.33;;;5.30;;
10657;SDS011;5377;43.276;26.930;2023-11-19T04:51:37;7.27;;;5.13;;
10657;SDS011;5377;43.276;26.930;2023-11-19T04:54:05;8.73;;;5.43;;
10657;SDS011;5377;43.276;26.930;2023-11-19T04:56:32;8.30;;;5.27;;
10657;SDS011;5377;43.276;26.930;2023-11-19T04:58:58;7.33;;;5.97;;
10657;SDS011;5377;43.276;26.930;2023-11-19T05:01:25;7.40;;;4.93;;
10657;SDS011;5377;43.276;26.930;2023-11-19T05:03:54;8.27;;;5.53;;
10657;SDS011;5377;43.276;26.930;2023-11-19T05:06:22;6.07;;;5.00;;
10657;SDS011;5377;43.276;26.930;2023-11-19T05:08:49;6.50;;;5.27;;
10657;SDS011;5377;43.276;26.930;2023-11-19T05:11:16;4.17;;;3.77;;
10657;SDS011;5377;43.276;26.930;2023-11-19T05:13:43;6.53;;;5.47;;
10657;SDS011;5377;43.276;26.930;2023-11-19T05:16:11;7.47;;;5.13;;
10657;SDS011;5377;43.276;26.930;2023-11-19T05:18:39;6.47;;;5.33;;
10657;SDS011;5377;43.276;26.930;2023-11-19T05:21:07;8.97;;;6.27;;
10657;SDS011;5377;43.276;26.930;2023-11-19T05:23:34;6.50;;;4.63;;
10657;SDS011;5377;43.276;26.930;2023-11-19T05:26:01;7.07;;;5.50;;
10657;SDS011;5377;43.276;26.930;2023-11-19T05:28:28;7.47;;;5.33;;
10657;SDS011;5377;43.276;26.930;2023-11-19T05:30:55;7.03;;;4.90;;
10657;SDS011;5377;43.276;26.930;2023-11-19T05:33:21;9.07;;;5.93;;
10657;SDS011;5377;43.276;26.930;2023-11-19T05:35:48;7.53;;;5.40;;
10657;SDS011;5377;43.276;26.930;2023-11-19T05:38:16;6.50;;;4.70;;
10657;SDS011;5377;43.276;26.930;2023-11-19T05:40:43;11.10;;;5.80;;
10657;SDS011;5377;43.276;26.930;2023-11-19T05:43:10;4.93;;;4.07;;
10657;SDS011;5377;43.276;26.930;2023-11-19T05:45:37;6.13;;;4.37;;
10657;SDS011;5377;43.276;26.930;2023-11-19T05:48:04;6.20;;;5.60;;
10657;SDS011;5377;43.276;26.930;2023-11-19T05:50:30;5.37;;;4.00;;
10657;SDS011;5377;43.276;26.930;2023-11-19T05:52:57;8.70;;;6.03;;
10657;SDS011;5377;43.276;26.930;2023-11-19T05:55:25;5.30;;;4.53;;
10657;SDS011;5377;43.276;26.930;2023-11-19T05:57:53;6.27;;;5.50;;
10657;SDS011;5377;43.276;26.930;2023-11-19T06:00:20;8.20;;;5.23;;
10657;SDS011;5377;43.276;26.930;2023-11-19T06:02:46;8.10;;;5.30;;
10657;SDS011;5377;43.276;26.930;2023-11-19T06:05:13;7.57;;;5.90;;
10657;SDS011;5377;43.276;26.930;2023-11-19T06:07:40;7.70;;;5.00;;
10657;SDS011;5377;43.276;26.930;2023-11-19T06:10:07;7.60;;;6.30;;
10657;SDS011;5377;43.276;26.930;2023-11-19T06:12:36;5.77;;;4.47;;
10657;SDS011;5377;43.276;26.930;2023-11-19T06:15:06;7.20;;;5.53;;
10657;SDS011;5377;43.276;26.930;2023-11-19T06:17:34;6.03;;;5.43;;
10657;SDS011;5377;43.276;26.930;2023-11-19T06:20:01;6.03;;;4.33;;
10657;SDS011;5377;43.276;26.930;2023-11-19T06:22:29;10.40;;;6.83;;
10657;SDS011;5377;43.276;26.930;2023-11-19T06:24:56;8.90;;;6.63;;
10657;SDS011;5377;43.276;26.930;2023-11-19T06:27:23;5.37;;;4.77;;
10657;SDS011;5377;43.276;26.930;2023-11-19T06:29:51;6.53;;;5.67;;
10657;SDS011;5377;43.276;26.930;2023-11-19T06:32:18;7.13;;;5.50;;
10657;SDS011;5377;43.276;26.930;2023-11-19T06:34:45;5.27;;;3.90;;
10657;SDS011;5377;43.276;26.930;2023-11-19T06:37:12;6.93;;;4.77;;
10657;SDS011;5377;43.276;26.930;2023-11-19T06:39:38;3.87;;;3.20;;
10657;SDS011;5377;43.276;26.930;2023-11-19T06:42:05;5.57;;;5.07;;
10657;SDS011;5377;43.276;26.930;2023-11-19T06:44:32;5.93;;;5.10;;
10657;SDS011;5377;43.276;26.930;2023-11-19T06:47:00;9.37;;;6.50;;
10657;SDS011;5377;43.276;26.930;2023-11-19T06:49:27;7.43;;;4.63;;
10657;SDS011;5377;43.276;26.930;2023-11-19T06:51:54;6.37;;;5.33;;
10657;SDS011;5377;43.276;26.930;2023-11-19T06:54:21;5.27;;;4.37;;
10657;SDS011;5377;43.276;26.930;2023-11-19T06:56:48;4.00;;;3.20;;
10657;SDS011;5377;43.276;26.930;2023-11-19T06:59:15;7.30;;;5.03;;
10657;SDS011;5377;43.276;26.930;2023-11-19T07:01:42;6.97;;;5.77;;
10657;SDS011;5377;43.276;26.930;2023-11-19T07:04:11;6.10;;;4.53;;
10657;SDS011;5377;43.276;26.930;2023-11-19T07:06:38;8.17;;;7.00;;
10657;SDS011;5377;43.276;26.930;2023-11-19T07:09:06;7.73;;;5.83;;
10657;SDS011;5377;43.276;26.930;2023-11-19T07:11:35;8.97;;;7.03;;
10657;SDS011;5377;43.276;26.930;2023-11-19T07:14:03;9.90;;;7.07;;
10657;SDS011;5377;43.276;26.930;2023-11-19T07:16:31;10.53;;;8.03;;
10657;SDS011;5377;43.276;26.930;2023-11-19T07:18:58;6.23;;;4.60;;
10657;SDS011;5377;43.276;26.930;2023-11-19T07:21:26;10.80;;;8.23;;
10657;SDS011;5377;43.276;26.930;2023-11-19T07:23:54;13.63;;;8.40;;
10657;SDS011;5377;43.276;26.930;2023-11-19T07:26:21;9.67;;;6.93;;
10657;SDS011;5377;43.276;26.930;2023-11-19T07:28:48;8.53;;;6.63;;
10657;SDS011;5377;43.276;26.930;2023-11-19T07:31:15;7.53;;;6.33;;
10657;SDS011;5377;43.276;26.930;2023-11-19T07:33:43;12.30;;;6.87;;
10657;SDS011;5377;43.276;26.930;2023-11-19T07:36:10;9.40;;;6.10;;
10657;SDS011;5377;43.276;26.930;2023-11-19T07:38:39;8.33;;;5.90;;
10657;SDS011;5377;43.276;26.930;2023-11-19T07:41:05;8.10;;;6.10;;
10657;SDS011;5377;43.276;26.930;2023-11-19T07:43:34;9.33;;;6.93;;
10657;SDS011;5377;43.276;26.930;2023-11-19T07:46:01;4.40;;;3.83;;
10657;SDS011;5377;43.276;26.930;2023-11-19T07:48:29;9.30;;;5.43;;
10657;SDS011;5377;43.276;26.930;2023-11-19T07:50:55;10.27;;;5.53;;
10657;SDS011;5377;43.276;26.930;2023-11-19T07:53:22;7.10;;;5.83;;
10657;SDS011;5377;43.276;26.930;2023-11-19T07:55:50;6.97;;;6.17;;
10657;SDS011;5377;43.276;26.930;2023-11-19T07:58:17;7.07;;;5.97;;
10657;SDS011;5377;43.276;26.930;2023-11-19T08:00:44;7.23;;;4.60;;
10657;SDS011;5377;43.276;26.930;2023-11-19T08:03:11;6.70;;;4.97;;
10657;SDS011;5377;43.276;26.930;2023-11-19T08:05:37;4.03;;;3.63;;
10657;SDS011;5377;43.276;26.930;2023-11-19T08:08:04;5.23;;;4.70;;
10657;SDS011;5377;43.276;26.930;2023-11-19T08:10:32;3.33;;;3.03;;
10657;SDS011;5377;43.276;26.930;2023-11-19T08:13:00;7.03;;;4.43;;
10657;SDS011;5377;43.276;26.930;2023-11-19T08:15:27;5.57;;;4.10;;
10657;SDS011;5377;43.276;26.930;2023-11-19T08:17:54;2.83;;;2.60;;
10657;SDS011;5377;43.276;26.930;2023-11-19T08:20:21;4.07;;;3.43;;
10657;SDS011;5377;43.276;26.930;2023-11-19T08:22:48;5.17;;;3.03;;
10657;SDS011;5377;43.276;26.930;2023-11-19T08:25:15;4.03;;;3.50;;
10657;SDS011;5377;43.276;26.930;2023-11-19T08:27:42;3.10;;;2.90;;
10657;SDS011;5377;43.276;26.930;2023-11-19T08:30:11;4.70;;;3.00;;
10657;SDS011;5377;43.276;26.930;2023-11-19T08:32:39;4.73;;;3.97;;
10657;SDS011;5377;43.276;26.930;2023-11-19T08:35:06;3.73;;;3.10;;
10657;SDS011;5377;43.276;26.930;2023-11-19T08:37:33;4.03;;;3.63;;
10657;SDS011;5377;43.276;26.930;2023-11-19T08:40:02;4.07;;;3.60;;
10657;SDS011;5377;43.276;26.930;2023-11-19T08:42:30;2.97;;;2.10;;
10657;SDS011;5377;43.276;26.930;2023-11-19T08:44:57;3.53;;;3.23;;
10657;SDS011;5377;43.276;26.930;2023-11-19T08:47:25;3.47;;;2.33;;
10657;SDS011;5377;43.276;26.930;2023-11-19T08:49:52;4.00;;;3.50;;
10657;SDS011;5377;43.276;26.930;2023-11-19T08:52:19;3.53;;;3.23;;
10657;SDS011;5377;43.276;26.930;2023-11-19T08:54:46;2.40;;;2.20;;
10657;SDS011;5377;43.276;26.930;2023-11-19T08:57:13;4.13;;;2.87;;
10657;SDS011;5377;43.276;26.930;2023-11-19T08:59:40;3.53;;;3.23;;
10657;SDS011;5377;43.276;26.930;2023-11-19T09:02:07;7.00;;;3.90;;
10657;SDS011;5377;43.276;26.930;2023-11-19T09:04:35;4.93;;;3.77;;
10657;SDS011;5377;43.276;26.930;2023-11-19T09:07:02;4.47;;;3.63;;
10657;SDS011;5377;43.276;26.930;2023-11-19T09:09:31;3.43;;;2.80;;
10657;SDS011;5377;43.276;26.930;2023-11-19T09:12:01;6.73;;;5.53;;
10657;SDS011;5377;43.276;26.930;2023-11-19T09:14:28;5.40;;;3.13;;
10657;SDS011;5377;43.276;26.930;2023-11-19T09:16:55;5.07;;;4.27;;
10657;SDS011;5377;43.276;26.930;2023-11-19T09:19:23;5.23;;;4.00;;
10657;SDS011;5377;43.276;26.930;2023-11-19T09:21:52;3.70;;;3.33;;
10657;SDS011;5377;43.276;26.930;2023-11-19T09:24:19;5.33;;;4.23;;
10657;SDS011;5377;43.276;26.930;2023-11-19T09:26:46;4.10;;;3.50;;
10657;SDS011;5377;43.276;26.930;2023-11-19T09:29:13;5.87;;;4.23;;
10657;SDS011;5377;43.276;26.930;2023-11-19T09:31:40;6.00;;;5.40;;
10657;SDS011;5377;43.276;26.930;2023-11-19T09:34:07;6.32;;;5.68;;
10657;SDS011;5377;43.276;26.930;2023-11-19T09:36:34;6.57;;;5.50;;
10657;SDS011;5377;43.276;26.930;2023-11-19T09:39:02;5.00;;;4.60;;
10657;SDS011;5377;43.276;26.930;2023-11-19T09:41:29;5.47;;;4.97;;
10657;SDS011;5377;43.276;26.930;2023-11-19T09:43:57;6.32;;;5.82;;
10657;SDS011;5377;43.276;26.930;2023-11-19T09:46:24;7.03;;;5.20;;
10657;SDS011;5377;43.276;26.930;2023-11-19T09:48:52;5.55;;;4.78;;
10657;SDS011;5377;43.276;26.930;2023-11-19T09:51:20;5.60;;;5.10;;
10657;SDS011;5377;43.276;26.930;2023-11-19T09:53:48;5.67;;;5.13;;
10657;SDS011;5377;43.276;26.930;2023-11-19T09:56:16;7.53;;;6.73;;
10657;SDS011;5377;43.276;26.930;2023-11-19T09:58:44;7.77;;;7.07;;
10657;SDS011;5377;43.276;26.930;2023-11-19T10:01:11;6.00;;;4.80;;
10657;SDS011;5377;43.276;26.930;2023-11-19T10:03:39;7.47;;;6.70;;
10657;SDS011;5377;43.276;26.930;2023-11-19T10:06:09;7.07;;;5.87;;
10657;SDS011;5377;43.276;26.930;2023-11-19T10:08:37;11.73;;;8.70;;
10657;SDS011;5377;43.276;26.930;2023-11-19T10:11:05;8.23;;;6.90;;
10657;SDS011;5377;43.276;26.930;2023-11-19T10:13:33;7.80;;;6.57;;
10657;SDS011;5377;43.276;26.930;2023-11-19T10:16:04;8.57;;;6.50;;
10657;SDS011;5377;43.276;26.930;2023-11-19T10:18:33;6.67;;;5.50;;
10657;SDS011;5377;43.276;26.930;2023-11-19T10:21:03;6.17;;;5.30;;
10657;SDS011;5377;43.276;26.930;2023-11-19T10:23:30;7.63;;;6.47;;
10657;SDS011;5377;43.276;26.930;2023-11-19T10:26:02;8.60;;;6.50;;
10657;SDS011;5377;43.276;26.930;2023-11-19T10:28:37;7.10;;;6.40;;
10657;SDS011;5377;43.276;26.930;2023-11-19T10:31:07;7.67;;;6.87;;
10657;SDS011;5377;43.276;26.930;2023-11-19T10:33:34;7.00;;;6.13;;
10657;SDS011;5377;43.276;26.930;2023-11-19T10:36:01;6.57;;;5.97;;
10657;SDS011;5377;43.276;26.930;2023-11-19T10:38:28;7.27;;;6.43;;
10657;SDS011;5377;43.276;26.930;2023-11-19T10:40:55;7.67;;;6.93;;
10657;SDS011;5377;43.276;26.930;2023-11-19T10:43:22;8.37;;;6.67;;
10657;SDS011;5377;43.276;26.930;2023-11-19T10:45:51;6.70;;;6.07;;
10657;SDS011;5377;43.276;26.930;2023-11-19T10:48:18;8.07;;;6.63;;
10657;SDS011;5377;43.276;26.930;2023-11-19T10:50:46;6.93;;;6.30;;
10657;SDS011;5377;43.276;26.930;2023-11-19T10:53:19;7.57;;;6.80;;
10657;SDS011;5377;43.276;26.930;2023-11-19T10:55:47;6.60;;;5.97;;
10657;SDS011;5377;43.276;26.930;2023-11-19T10:58:15;6.07;;;5.40;;
10657;SDS011;5377;43.276;26.930;2023-11-19T11:00:43;7.15;;;6.07;;
10657;SDS011;5377;43.276;26.930;2023-11-19T11:03:16;6.22;;;5.63;;
10657;SDS011;5377;43.276;26.930;2023-11-19T11:05:45;6.30;;;5.75;;
10657;SDS011;5377;43.276;26.930;2023-11-19T11:08:13;5.15;;;4.70;;
10657;SDS011;5377;43.276;26.930;2023-11-19T11:10:42;5.97;;;5.47;;
10657;SDS011;5377;43.276;26.930;2023-11-19T11:13:11;6.28;;;5.57;;
10657;SDS011;5377;43.276;26.930;2023-11-19T11:15:39;8.43;;;7.47;;
10657;SDS011;5377;43.276;26.930;2023-11-19T11:18:08;7.95;;;7.25;;
10657;SDS011;5377;43.276;26.930;2023-11-19T11:20:37;8.00;;;7.30;;
10657;SDS011;5377;43.276;26.930;2023-11-19T11:23:11;8.85;;;8.05;;
10657;SDS011;5377;43.276;26.930;2023-11-19T11:26:00;10.45;;;9.35;;
10657;SDS011;5377;43.276;26.930;2023-11-19T11:28:43;8.35;;;7.68;;
10657;SDS011;5377;43.276;26.930;2023-11-19T11:31:24;11.30;;;9.82;;
10657;SDS011;5377;43.276;26.930;2023-11-19T11:34:07;7.18;;;6.60;;
10657;SDS011;5377;43.276;26.930;2023-11-19T11:36:49;9.90;;;8.18;;
10657;SDS011;5377;43.276;26.930;2023-11-19T11:39:24;6.93;;;6.32;;
10657;SDS011;5377;43.276;26.930;2023-11-19T11:44:58;5.80;;;5.30;;
10657;SDS011;5377;43.276;26.930;2023-11-19T11:47:27;5.82;;;5.40;;
10657;SDS011;5377;43.276;26.930;2023-11-19T11:50:33;4.57;;;4.20;;
10657;SDS011;5377;43.276;26.930;2023-11-19T11:53:16;3.42;;;3.22;;
10657;SDS011;5377;43.276;26.930;2023-11-19T11:55:57;3.58;;;3.28;;
10657;SDS011;5377;43.276;26.930;2023-11-19T11:58:26;3.78;;;3.47;;
10657;SDS011;5377;43.276;26.930;2023-11-19T12:00:58;2.92;;;2.72;;
10657;SDS011;5377;43.276;26.930;2023-11-19T12:03:28;4.28;;;2.72;;
10657;SDS011;5377;43.276;26.930;2023-11-19T12:05:56;4.22;;;3.83;;
10657;SDS011;5377;43.276;26.930;2023-11-19T12:08:26;2.55;;;2.45;;
10657;SDS011;5377;43.276;26.930;2023-11-19T12:10:55;3.47;;;3.15;;
10657;SDS011;5377;43.276;26.930;2023-11-19T12:13:24;2.47;;;2.30;;
10657;SDS011;5377;43.276;26.930;2023-11-19T12:16:06;4.18;;;3.83;;
10657;SDS011;5377;43.276;26.930;2023-11-19T12:18:33;5.25;;;4.85;;
10657;SDS011;5377;43.276;26.930;2023-11-19T12:21:01;4.55;;;4.15;;
10657;SDS011;5377;43.276;26.930;2023-11-19T12:23:29;4.80;;;4.30;;
10657;SDS011;5377;43.276;26.930;2023-11-19T12:25:56;6.03;;;5.55;;
10657;SDS011;5377;43.276;26.930;2023-11-19T12:28:24;6.18;;;5.40;;
10657;SDS011;5377;43.276;26.930;2023-11-19T12:30:52;6.18;;;5.25;;
10657;SDS011;5377;43.276;26.930;2023-11-19T12:33:19;5.45;;;4.95;;
10657;SDS011;5377;43.276;26.930;2023-11-19T12:35:47;6.40;;;5.82;;
10657;SDS011;5377;43.276;26.930;2023-11-19T12:38:20;3.75;;;3.03;;
10657;SDS011;5377;43.276;26.930;2023-11-19T12:40:49;4.22;;;3.85;;
10657;SDS011;5377;43.276;26.930;2023-11-19T12:43:29;2.53;;;2.42;;
10657;SDS011;5377;43.276;26.930;2023-11-19T12:45:56;4.45;;;4.03;;
10657;SDS011;5377;43.276;26.930;2023-11-19T12:48:22;3.67;;;3.38;;
10657;SDS011;5377;43.276;26.930;2023-11-19T12:50:52;5.07;;;4.57;;
10657;SDS011;5377;43.276;26.930;2023-11-19T12:53:20;5.75;;;4.47;;
10657;SDS011;5377;43.276;26.930;2023-11-19T12:55:46;4.50;;;4.10;;
10657;SDS011;5377;43.276;26.930;2023-11-19T12:58:31;4.53;;;4.13;;
10657;SDS011;5377;43.276;26.930;2023-11-19T13:01:02;3.75;;;3.45;;
10657;SDS011;5377;43.276;26.930;2023-11-19T13:03:30;5.18;;;4.40;;
10657;SDS011;5377;43.276;26.930;2023-11-19T13:06:01;4.18;;;3.88;;
10657;SDS011;5377;43.276;26.930;2023-11-19T13:08:29;5.40;;;4.88;;
10657;SDS011;5377;43.276;26.930;2023-11-19T13:11:04;4.88;;;4.45;;
10657;SDS011;5377;43.276;26.930;2023-11-19T13:13:32;3.43;;;3.13;;
10657;SDS011;5377;43.276;26.930;2023-11-19T13:16:03;3.90;;;3.40;;
10657;SDS011;5377;43.276;26.930;2023-11-19T13:18:31;5.07;;;4.57;;
10657;SDS011;5377;43.276;26.930;2023-11-19T13:20:58;5.90;;;4.77;;
10657;SDS011;5377;43.276;26.930;2023-11-19T13:23:25;5.47;;;4.10;;
10657;SDS011;5377;43.276;26.930;2023-11-19T13:25:52;4.67;;;4.27;;
10657;SDS011;5377;43.276;26.930;2023-11-19T13:28:20;4.03;;;3.73;;
10657;SDS011;5377;43.276;26.930;2023-11-19T13:30:47;2.93;;;2.77;;
10657;SDS011;5377;43.276;26.930;2023-11-19T13:33:14;5.17;;;4.10;;
10657;SDS011;5377;43.276;26.930;2023-11-19T13:35:41;4.33;;;3.87;;
10657;SDS011;5377;43.276;26.930;2023-11-19T13:38:08;3.70;;;3.40;;
10657;SDS011;5377;43.276;26.930;2023-11-19T13:40:35;2.93;;;2.73;;
10657;SDS011;5377;43.276;26.930;2023-11-19T13:43:02;6.80;;;4.03;;
10657;SDS011;5377;43.276;26.930;2023-11-19T13:45:30;4.57;;;3.33;;
10657;SDS011;5377;43.276;26.930;2023-11-19T13:47:57;4.03;;;3.50;;
10657;SDS011;5377;43.276;26.930;2023-11-19T13:50:24;4.70;;;4.20;;
10657;SDS011;5377;43.276;26.930;2023-11-19T13:52:51;4.47;;;3.43;;
10657;SDS011;5377;43.276;26.930;2023-11-19T13:55:18;3.20;;;2.97;;
10657;SDS011;5377;43.276;26.930;2023-11-19T13:57:44;2.57;;;2.37;;
10657;SDS011;5377;43.276;26.930;2023-11-19T14:00:12;6.87;;;5.80;;
10657;SDS011;5377;43.276;26.930;2023-11-19T14:02:42;8.60;;;6.23;;
10657;SDS011;5377;43.276;26.930;2023-11-19T14:05:09;7.60;;;6.00;;
10657;SDS011;5377;43.276;26.930;2023-11-19T14:07:37;3.47;;;3.13;;
10657;SDS011;5377;43.276;26.930;2023-11-19T14:10:04;5.77;;;5.17;;
10657;SDS011;5377;43.276;26.930;2023-11-19T14:12:31;5.77;;;4.43;;
10657;SDS011;5377;43.276;26.930;2023-11-19T14:14:58;6.00;;;5.40;;
10657;SDS011;5377;43.276;26.930;2023-11-19T14:17:26;5.53;;;5.03;;
10657;SDS011;5377;43.276;26.930;2023-11-19T14:19:54;4.40;;;4.10;;
10657;SDS011;5377;43.276;26.930;2023-11-19T14:22:21;4.53;;;4.23;;
10657;SDS011;5377;43.276;26.930;2023-11-19T14:24:47;5.20;;;4.63;;
10657;SDS011;5377;43.276;26.930;2023-11-19T14:27:14;5.40;;;4.90;;
10657;SDS011;5377;43.276;26.930;2023-11-19T14:29:42;4.73;;;3.63;;
10657;SDS011;5377;43.276;26.930;2023-11-19T14:32:09;5.10;;;4.60;;
10657;SDS011;5377;43.276;26.930;2023-11-19T14:34:36;5.80;;;5.20;;
10657;SDS011;5377;43.276;26.930;2023-11-19T14:37:05;5.03;;;3.77;;
10657;SDS011;5377;43.276;26.930;2023-11-19T14:39:31;5.13;;;4.47;;
10657;SDS011;5377;43.276;26.930;2023-11-19T14:41:58;6.10;;;4.67;;
10657;SDS011;5377;43.276;26.930;2023-11-19T14:44:29;5.17;;;4.20;;
10657;SDS011;5377;43.276;26.930;2023-11-19T14:46:56;4.70;;;4.23;;
10657;SDS011;5377;43.276;26.930;2023-11-19T14:49:23;4.80;;;4.17;;
10657;SDS011;5377;43.276;26.930;2023-11-19T14:51:50;5.67;;;5.10;;
10657;SDS011;5377;43.276;26.930;2023-11-19T14:54:18;4.20;;;3.80;;
10657;SDS011;5377;43.276;26.930;2023-11-19T14:56:45;2.60;;;2.37;;